Aérodrome :
LOGIN :

S'inscrire | Disclaimer

   EN    FR    IT 

 










Légende :    VFR   VFR Marginal   IFR   IFR Intensif   IFR Très Intensif
Visi : 
Plafond : 
>= 8 km
>= 3000ft
5 à 8 km
1000 à 3000 ft
1500m à 5 km
500 à 1000 ft
800 à 1500m
200 à 500 ft
< 800m
< 200 ft
Symboles :   Orages  Brouillard  Fortes neiges  Fortes précipitations  Vent > 20 kt
SIGMETs :   Divers  Orages  Givrage  Turbulence  Onde Orograph.  Cendres Volcan.






- Altitude de l'aérodrome : 195 ft


LFMY - Salon de Provence

DERNIER METAR :
  • 030930Z AUTO 32008KT 290V350 CAVOK 07/01 Q1009 NOSIG

METARs EXPIRÉS :
  • 030900Z AUTO 32010KT CAVOK 07/01 Q1008 NOSIG
  • 030830Z AUTO 32014KT CAVOK 06/00 Q1008 NOSIG
  • 030800Z AUTO 33011KT CAVOK 05/00 Q1009 TEMPO 34015G25KT
  • 030730Z AUTO 32009KT CAVOK 05/00 Q1009 TEMPO 34015G25KT
  • 030700Z AUTO 32013KT CAVOK 05/00 Q1009 BECMG 34015G25KT
  • 030630Z AUTO 32010KT CAVOK 05/00 Q1009 BECMG 34015G25KT

TAF TAF LFMY
Valide du 03 à 09h jusqu'au 04 à 09h UTC


030800Z 0309/0409 34015G25KT CAVOK TX12/0313Z TN06/0405Z
BECMG 0309/0311 34015KT
BECMG 0314/0316 27008KT
BECMG 0321/0323 10018G30KT 4000 RA BKN020 OVC035



MET'MAP, la Météo Aéronautique d'un coup d'oeil ! - Copyright ORBIFLY Décembre 2007 - Disclaimer

ORBIFLY MET'MAP TEAM :

Programmation & Développement : Alexandra Zaïnal
Sur une idée originale de : Baudouin d'Aumeries
Assistance à la programmation : Marc-Olivier Méhu
Soutien technique & logistique : Manuel Goepfert

Contact : metmap@orbifly.com




SOURCES & CREDITS :

   NOAA